sensor_id;sensor_type;location;lat;lon;timestamp;temperature;humidity
7666;DHT22;3875;46.562;4.898;2023-08-07T00:00:12;16.10;83.90
7666;DHT22;3875;46.562;4.898;2023-08-07T00:02:38;16.10;83.60
7666;DHT22;3875;46.562;4.898;2023-08-07T00:05:04;16.00;83.70
7666;DHT22;3875;46.562;4.898;2023-08-07T00:07:30;16.10;83.70
7666;DHT22;3875;46.562;4.898;2023-08-07T00:09:56;16.10;83.80
7666;DHT22;3875;46.562;4.898;2023-08-07T00:12:21;16.10;83.80
7666;DHT22;3875;46.562;4.898;2023-08-07T00:14:49;16.10;83.60
7666;DHT22;3875;46.562;4.898;2023-08-07T00:17:16;16.10;83.80
7666;DHT22;3875;46.562;4.898;2023-08-07T00:19:41;16.10;83.70
7666;DHT22;3875;46.562;4.898;2023-08-07T00:22:07;16.10;83.70
7666;DHT22;3875;46.562;4.898;2023-08-07T00:24:32;16.00;83.60
7666;DHT22;3875;46.562;4.898;2023-08-07T00:26:58;16.00;83.80
7666;DHT22;3875;46.562;4.898;2023-08-07T00:29:24;15.90;83.70
7666;DHT22;3875;46.562;4.898;2023-08-07T00:31:50;15.90;83.70
7666;DHT22;3875;46.562;4.898;2023-08-07T00:34:15;15.90;83.40
7666;DHT22;3875;46.562;4.898;2023-08-07T00:36:41;15.90;83.30
7666;DHT22;3875;46.562;4.898;2023-08-07T00:39:06;15.80;83.50
7666;DHT22;3875;46.562;4.898;2023-08-07T00:41:33;15.80;83.30
7666;DHT22;3875;46.562;4.898;2023-08-07T00:43:59;15.80;83.30
7666;DHT22;3875;46.562;4.898;2023-08-07T00:46:26;15.80;83.20
7666;DHT22;3875;46.562;4.898;2023-08-07T00:48:53;15.80;83.60
7666;DHT22;3875;46.562;4.898;2023-08-07T00:51:20;15.70;83.60
7666;DHT22;3875;46.562;4.898;2023-08-07T00:53:47;15.70;84.00
7666;DHT22;3875;46.562;4.898;2023-08-07T00:56:13;15.70;84.00
7666;DHT22;3875;46.562;4.898;2023-08-07T00:58:39;15.70;83.90
7666;DHT22;3875;46.562;4.898;2023-08-07T01:01:06;15.60;84.10
7666;DHT22;3875;46.562;4.898;2023-08-07T01:03:31;15.60;84.30
7666;DHT22;3875;46.562;4.898;2023-08-07T01:05:57;15.60;84.20
7666;DHT22;3875;46.562;4.898;2023-08-07T01:08:24;15.50;84.30
7666;DHT22;3875;46.562;4.898;2023-08-07T01:19:00;15.50;84.30
7666;DHT22;3875;46.562;4.898;2023-08-07T01:21:26;15.50;84.00
7666;DHT22;3875;46.562;4.898;2023-08-07T01:23:52;15.50;83.90
7666;DHT22;3875;46.562;4.898;2023-08-07T01:26:19;15.40;83.90
7666;DHT22;3875;46.562;4.898;2023-08-07T01:29:11;15.40;83.90
7666;DHT22;3875;46.562;4.898;2023-08-07T01:31:39;15.30;84.10
7666;DHT22;3875;46.562;4.898;2023-08-07T01:34:07;15.20;84.00
7666;DHT22;3875;46.562;4.898;2023-08-07T01:36:34;15.20;84.00
7666;DHT22;3875;46.562;4.898;2023-08-07T01:39:01;15.20;84.00
7666;DHT22;3875;46.562;4.898;2023-08-07T01:41:28;15.20;84.10
7666;DHT22;3875;46.562;4.898;2023-08-07T01:43:54;15.10;84.10
7666;DHT22;3875;46.562;4.898;2023-08-07T01:46:20;15.10;84.30
7666;DHT22;3875;46.562;4.898;2023-08-07T01:48:46;15.00;84.50
7666;DHT22;3875;46.562;4.898;2023-08-07T01:51:12;14.90;84.60
7666;DHT22;3875;46.562;4.898;2023-08-07T01:53:37;14.90;84.80
7666;DHT22;3875;46.562;4.898;2023-08-07T01:56:03;14.80;85.00
7666;DHT22;3875;46.562;4.898;2023-08-07T01:58:29;14.90;85.00
7666;DHT22;3875;46.562;4.898;2023-08-07T02:00:54;14.80;85.10
7666;DHT22;3875;46.562;4.898;2023-08-07T02:03:20;14.80;85.20
7666;DHT22;3875;46.562;4.898;2023-08-07T02:05:46;14.80;85.10
7666;DHT22;3875;46.562;4.898;2023-08-07T02:08:12;14.80;85.20
7666;DHT22;3875;46.562;4.898;2023-08-07T02:10:38;14.80;85.20
7666;DHT22;3875;46.562;4.898;2023-08-07T02:13:03;14.80;85.10
7666;DHT22;3875;46.562;4.898;2023-08-07T02:15:29;14.80;85.10
7666;DHT22;3875;46.562;4.898;2023-08-07T02:17:55;14.90;85.00
7666;DHT22;3875;46.562;4.898;2023-08-07T02:20:21;14.90;85.10
7666;DHT22;3875;46.562;4.898;2023-08-07T02:22:46;14.80;85.30
7666;DHT22;3875;46.562;4.898;2023-08-07T02:25:12;14.90;85.40
7666;DHT22;3875;46.562;4.898;2023-08-07T02:27:38;14.90;85.50
7666;DHT22;3875;46.562;4.898;2023-08-07T02:30:04;14.90;85.70
7666;DHT22;3875;46.562;4.898;2023-08-07T02:32:30;14.90;85.80
7666;DHT22;3875;46.562;4.898;2023-08-07T02:34:56;14.90;85.80
7666;DHT22;3875;46.562;4.898;2023-08-07T02:37:22;14.90;85.90
7666;DHT22;3875;46.562;4.898;2023-08-07T02:39:48;14.80;85.80
7666;DHT22;3875;46.562;4.898;2023-08-07T02:42:13;14.80;86.00
7666;DHT22;3875;46.562;4.898;2023-08-07T02:44:39;14.90;86.00
7666;DHT22;3875;46.562;4.898;2023-08-07T02:47:06;14.80;86.20
7666;DHT22;3875;46.562;4.898;2023-08-07T02:49:32;14.80;86.40
7666;DHT22;3875;46.562;4.898;2023-08-07T02:51:57;14.70;86.60
7666;DHT22;3875;46.562;4.898;2023-08-07T02:54:23;14.70;86.70
7666;DHT22;3875;46.562;4.898;2023-08-07T02:56:49;14.70;86.70
7666;DHT22;3875;46.562;4.898;2023-08-07T02:59:15;14.70;86.80
7666;DHT22;3875;46.562;4.898;2023-08-07T03:01:43;14.70;86.80
7666;DHT22;3875;46.562;4.898;2023-08-07T03:04:09;14.80;86.70
7666;DHT22;3875;46.562;4.898;2023-08-07T03:06:34;14.80;86.70
7666;DHT22;3875;46.562;4.898;2023-08-07T03:09:00;14.80;86.70
7666;DHT22;3875;46.562;4.898;2023-08-07T03:11:26;14.80;86.70
7666;DHT22;3875;46.562;4.898;2023-08-07T03:13:51;14.90;86.60
7666;DHT22;3875;46.562;4.898;2023-08-07T03:16:17;14.90;86.50
7666;DHT22;3875;46.562;4.898;2023-08-07T03:18:42;14.90;86.40
7666;DHT22;3875;46.562;4.898;2023-08-07T03:21:08;15.00;86.30
7666;DHT22;3875;46.562;4.898;2023-08-07T03:23:34;15.00;86.30
7666;DHT22;3875;46.562;4.898;2023-08-07T03:26:08;15.00;86.20
7666;DHT22;3875;46.562;4.898;2023-08-07T03:28:34;15.00;86.20
7666;DHT22;3875;46.562;4.898;2023-08-07T03:31:01;15.10;86.10
7666;DHT22;3875;46.562;4.898;2023-08-07T03:33:26;15.10;85.70
7666;DHT22;3875;46.562;4.898;2023-08-07T03:35:52;15.20;85.50
7666;DHT22;3875;46.562;4.898;2023-08-07T03:38:18;15.20;85.30
7666;DHT22;3875;46.562;4.898;2023-08-07T03:40:44;15.20;85.20
7666;DHT22;3875;46.562;4.898;2023-08-07T03:43:10;15.20;85.30
7666;DHT22;3875;46.562;4.898;2023-08-07T03:48:01;15.10;85.50
7666;DHT22;3875;46.562;4.898;2023-08-07T03:50:27;15.20;85.10
7666;DHT22;3875;46.562;4.898;2023-08-07T03:52:53;15.30;85.00
7666;DHT22;3875;46.562;4.898;2023-08-07T03:55:18;15.40;84.90
7666;DHT22;3875;46.562;4.898;2023-08-07T03:57:44;15.40;84.90
7666;DHT22;3875;46.562;4.898;2023-08-07T04:00:10;15.30;84.70
7666;DHT22;3875;46.562;4.898;2023-08-07T04:02:37;15.30;84.60
7666;DHT22;3875;46.562;4.898;2023-08-07T04:05:02;15.40;84.60
7666;DHT22;3875;46.562;4.898;2023-08-07T04:07:28;15.30;84.60
7666;DHT22;3875;46.562;4.898;2023-08-07T04:09:54;15.30;84.50
7666;DHT22;3875;46.562;4.898;2023-08-07T04:12:19;15.30;84.50
7666;DHT22;3875;46.562;4.898;2023-08-07T04:14:45;15.30;84.40
7666;DHT22;3875;46.562;4.898;2023-08-07T04:17:10;15.30;84.40
7666;DHT22;3875;46.562;4.898;2023-08-07T04:19:36;15.30;84.40
7666;DHT22;3875;46.562;4.898;2023-08-07T04:22:02;15.20;84.60
7666;DHT22;3875;46.562;4.898;2023-08-07T04:24:28;15.20;84.70
7666;DHT22;3875;46.562;4.898;2023-08-07T04:26:53;15.20;84.70
7666;DHT22;3875;46.562;4.898;2023-08-07T04:29:19;15.20;84.60
7666;DHT22;3875;46.562;4.898;2023-08-07T04:31:45;15.20;84.60
7666;DHT22;3875;46.562;4.898;2023-08-07T04:34:11;15.10;84.70
7666;DHT22;3875;46.562;4.898;2023-08-07T04:36:38;15.20;84.40
7666;DHT22;3875;46.562;4.898;2023-08-07T04:39:03;15.20;84.20
7666;DHT22;3875;46.562;4.898;2023-08-07T04:41:29;15.20;84.20
7666;DHT22;3875;46.562;4.898;2023-08-07T04:46:20;15.30;83.60
7666;DHT22;3875;46.562;4.898;2023-08-07T04:48:46;15.40;83.70
7666;DHT22;3875;46.562;4.898;2023-08-07T04:51:13;15.40;83.60
7666;DHT22;3875;46.562;4.898;2023-08-07T04:56:04;15.50;83.40
7666;DHT22;3875;46.562;4.898;2023-08-07T04:58:30;15.50;83.40
7666;DHT22;3875;46.562;4.898;2023-08-07T05:00:56;15.50;83.20
7666;DHT22;3875;46.562;4.898;2023-08-07T05:03:22;15.50;83.20
7666;DHT22;3875;46.562;4.898;2023-08-07T05:05:48;15.60;83.30
7666;DHT22;3875;46.562;4.898;2023-08-07T05:08:14;15.60;83.30
7666;DHT22;3875;46.562;4.898;2023-08-07T05:10:39;15.60;83.30
7666;DHT22;3875;46.562;4.898;2023-08-07T05:13:05;15.70;82.90
7666;DHT22;3875;46.562;4.898;2023-08-07T05:15:31;15.80;82.50
7666;DHT22;3875;46.562;4.898;2023-08-07T05:17:57;15.80;82.10
7666;DHT22;3875;46.562;4.898;2023-08-07T05:20:22;15.90;82.00
7666;DHT22;3875;46.562;4.898;2023-08-07T05:22:48;16.00;81.70
7666;DHT22;3875;46.562;4.898;2023-08-07T05:25:15;16.10;81.40
7666;DHT22;3875;46.562;4.898;2023-08-07T05:27:45;16.20;81.30
7666;DHT22;3875;46.562;4.898;2023-08-07T05:30:11;16.20;81.10
7666;DHT22;3875;46.562;4.898;2023-08-07T05:32:37;16.30;81.00
7666;DHT22;3875;46.562;4.898;2023-08-07T05:35:07;16.30;81.00
7666;DHT22;3875;46.562;4.898;2023-08-07T05:37:33;16.40;81.00
7666;DHT22;3875;46.562;4.898;2023-08-07T05:39:59;16.40;80.50
7666;DHT22;3875;46.562;4.898;2023-08-07T05:42:24;16.40;80.50
7666;DHT22;3875;46.562;4.898;2023-08-07T05:44:50;16.40;80.40
7666;DHT22;3875;46.562;4.898;2023-08-07T05:47:16;16.50;80.00
7666;DHT22;3875;46.562;4.898;2023-08-07T05:49:41;16.50;80.30
7666;DHT22;3875;46.562;4.898;2023-08-07T05:52:07;16.50;80.30
7666;DHT22;3875;46.562;4.898;2023-08-07T05:54:33;16.50;80.40
7666;DHT22;3875;46.562;4.898;2023-08-07T05:56:59;16.70;80.20
7666;DHT22;3875;46.562;4.898;2023-08-07T05:59:24;16.80;80.20
7666;DHT22;3875;46.562;4.898;2023-08-07T06:01:50;16.90;79.30
7666;DHT22;3875;46.562;4.898;2023-08-07T06:04:16;17.00;79.00
7666;DHT22;3875;46.562;4.898;2023-08-07T06:06:42;17.00;79.00
7666;DHT22;3875;46.562;4.898;2023-08-07T06:09:09;17.10;78.10
7666;DHT22;3875;46.562;4.898;2023-08-07T06:11:35;17.30;77.80
7666;DHT22;3875;46.562;4.898;2023-08-07T06:14:01;17.40;77.20
7666;DHT22;3875;46.562;4.898;2023-08-07T06:16:27;17.40;77.10
7666;DHT22;3875;46.562;4.898;2023-08-07T06:18:53;17.60;77.40
7666;DHT22;3875;46.562;4.898;2023-08-07T06:21:19;17.70;76.90
7666;DHT22;3875;46.562;4.898;2023-08-07T06:23:45;17.90;76.90
7666;DHT22;3875;46.562;4.898;2023-08-07T06:26:12;18.10;76.10
7666;DHT22;3875;46.562;4.898;2023-08-07T06:28:38;18.30;75.20
7666;DHT22;3875;46.562;4.898;2023-08-07T06:31:08;18.30;74.80
7666;DHT22;3875;46.562;4.898;2023-08-07T06:33:34;18.40;74.20
7666;DHT22;3875;46.562;4.898;2023-08-07T06:36:00;18.50;74.40
7666;DHT22;3875;46.562;4.898;2023-08-07T06:38:26;18.60;74.40
7666;DHT22;3875;46.562;4.898;2023-08-07T06:40:51;18.70;73.80
7666;DHT22;3875;46.562;4.898;2023-08-07T06:43:17;18.90;74.30
7666;DHT22;3875;46.562;4.898;2023-08-07T06:45:45;19.10;73.00
7666;DHT22;3875;46.562;4.898;2023-08-07T06:48:11;19.10;72.50
7666;DHT22;3875;46.562;4.898;2023-08-07T06:50:37;19.30;72.90
7666;DHT22;3875;46.562;4.898;2023-08-07T06:53:03;19.40;72.80
7666;DHT22;3875;46.562;4.898;2023-08-07T06:55:28;19.40;71.30
7666;DHT22;3875;46.562;4.898;2023-08-07T06:57:54;19.50;71.00
7666;DHT22;3875;46.562;4.898;2023-08-07T07:00:20;19.50;71.80
7666;DHT22;3875;46.562;4.898;2023-08-07T07:02:45;19.50;71.40
7666;DHT22;3875;46.562;4.898;2023-08-07T07:05:11;19.80;71.40
7666;DHT22;3875;46.562;4.898;2023-08-07T07:07:36;19.80;71.90
7666;DHT22;3875;46.562;4.898;2023-08-07T07:10:02;20.00;71.40
7666;DHT22;3875;46.562;4.898;2023-08-07T07:12:28;20.00;70.80
7666;DHT22;3875;46.562;4.898;2023-08-07T07:14:53;20.10;70.50
7666;DHT22;3875;46.562;4.898;2023-08-07T07:17:19;20.10;70.50
7666;DHT22;3875;46.562;4.898;2023-08-07T07:19:45;20.40;69.30
7666;DHT22;3875;46.562;4.898;2023-08-07T07:22:11;20.60;69.30
7666;DHT22;3875;46.562;4.898;2023-08-07T07:24:37;20.60;69.70
7666;DHT22;3875;46.562;4.898;2023-08-07T07:27:03;20.70;69.80
7666;DHT22;3875;46.562;4.898;2023-08-07T07:29:29;20.80;69.70
7666;DHT22;3875;46.562;4.898;2023-08-07T07:31:54;20.90;68.60
7666;DHT22;3875;46.562;4.898;2023-08-07T07:34:21;21.00;68.90
7666;DHT22;3875;46.562;4.898;2023-08-07T07:36:47;21.10;68.70
7666;DHT22;3875;46.562;4.898;2023-08-07T07:39:12;21.10;68.50
7666;DHT22;3875;46.562;4.898;2023-08-07T07:41:38;21.10;68.20
7666;DHT22;3875;46.562;4.898;2023-08-07T07:44:04;21.20;68.50
7666;DHT22;3875;46.562;4.898;2023-08-07T07:46:30;21.40;68.20
7666;DHT22;3875;46.562;4.898;2023-08-07T07:48:57;21.40;68.10
7666;DHT22;3875;46.562;4.898;2023-08-07T07:51:23;21.70;65.90
7666;DHT22;3875;46.562;4.898;2023-08-07T07:53:49;21.80;67.30
7666;DHT22;3875;46.562;4.898;2023-08-07T07:56:14;22.10;66.40
7666;DHT22;3875;46.562;4.898;2023-08-07T07:58:40;22.30;65.70
7666;DHT22;3875;46.562;4.898;2023-08-07T08:01:07;22.30;66.00
7666;DHT22;3875;46.562;4.898;2023-08-07T08:03:33;22.30;65.70
7666;DHT22;3875;46.562;4.898;2023-08-07T08:05:58;22.50;65.30
7666;DHT22;3875;46.562;4.898;2023-08-07T08:08:24;22.50;64.60
7666;DHT22;3875;46.562;4.898;2023-08-07T08:10:50;22.60;65.50
7666;DHT22;3875;46.562;4.898;2023-08-07T08:13:17;22.70;65.20
7666;DHT22;3875;46.562;4.898;2023-08-07T08:15:44;22.80;64.00
7666;DHT22;3875;46.562;4.898;2023-08-07T08:18:10;22.70;64.20
7666;DHT22;3875;46.562;4.898;2023-08-07T08:20:36;22.30;62.50
7666;DHT22;3875;46.562;4.898;2023-08-07T08:23:02;22.00;64.50
7666;DHT22;3875;46.562;4.898;2023-08-07T08:25:28;22.30;65.00
7666;DHT22;3875;46.562;4.898;2023-08-07T08:27:54;22.60;63.70
7666;DHT22;3875;46.562;4.898;2023-08-07T08:30:20;22.50;63.30
7666;DHT22;3875;46.562;4.898;2023-08-07T08:32:46;22.10;63.80
7666;DHT22;3875;46.562;4.898;2023-08-07T08:35:11;21.90;64.70
7666;DHT22;3875;46.562;4.898;2023-08-07T08:37:37;21.70;65.00
7666;DHT22;3875;46.562;4.898;2023-08-07T08:40:03;22.00;64.70
7666;DHT22;3875;46.562;4.898;2023-08-07T08:42:29;22.10;64.40
7666;DHT22;3875;46.562;4.898;2023-08-07T08:44:56;22.00;65.00
7666;DHT22;3875;46.562;4.898;2023-08-07T08:47:22;21.80;65.00
7666;DHT22;3875;46.562;4.898;2023-08-07T08:50:04;21.90;65.30
7666;DHT22;3875;46.562;4.898;2023-08-07T08:52:32;21.90;64.60
7666;DHT22;3875;46.562;4.898;2023-08-07T08:55:01;21.80;65.00
7666;DHT22;3875;46.562;4.898;2023-08-07T08:57:27;21.60;64.90
7666;DHT22;3875;46.562;4.898;2023-08-07T08:59:53;21.20;64.40
7666;DHT22;3875;46.562;4.898;2023-08-07T09:02:19;21.00;65.10
7666;DHT22;3875;46.562;4.898;2023-08-07T09:04:45;20.80;65.50
7666;DHT22;3875;46.562;4.898;2023-08-07T09:07:13;20.80;65.60
7666;DHT22;3875;46.562;4.898;2023-08-07T09:09:40;21.20;65.60
7666;DHT22;3875;46.562;4.898;2023-08-07T09:12:08;21.90;64.70
7666;DHT22;3875;46.562;4.898;2023-08-07T09:14:41;22.50;63.40
7666;DHT22;3875;46.562;4.898;2023-08-07T09:17:09;23.10;62.90
7666;DHT22;3875;46.562;4.898;2023-08-07T09:19:38;23.70;62.30
7666;DHT22;3875;46.562;4.898;2023-08-07T09:22:04;24.30;61.50
7666;DHT22;3875;46.562;4.898;2023-08-07T09:24:30;24.80;59.00
7666;DHT22;3875;46.562;4.898;2023-08-07T09:26:56;25.00;58.90
7666;DHT22;3875;46.562;4.898;2023-08-07T09:29:22;25.30;57.50
7666;DHT22;3875;46.562;4.898;2023-08-07T09:31:48;25.60;58.50
7666;DHT22;3875;46.562;4.898;2023-08-07T09:34:13;25.80;57.80
7666;DHT22;3875;46.562;4.898;2023-08-07T09:36:42;26.00;56.80
7666;DHT22;3875;46.562;4.898;2023-08-07T09:39:08;25.70;55.70
7666;DHT22;3875;46.562;4.898;2023-08-07T09:41:34;25.50;57.00
7666;DHT22;3875;46.562;4.898;2023-08-07T09:44:09;25.50;56.80
7666;DHT22;3875;46.562;4.898;2023-08-07T09:46:43;25.00;57.10
7666;DHT22;3875;46.562;4.898;2023-08-07T09:49:09;24.70;58.00
7666;DHT22;3875;46.562;4.898;2023-08-07T09:51:47;24.50;58.00
7666;DHT22;3875;46.562;4.898;2023-08-07T09:54:15;24.50;59.10
7666;DHT22;3875;46.562;4.898;2023-08-07T09:56:41;24.70;59.00
7666;DHT22;3875;46.562;4.898;2023-08-07T09:59:07;24.60;57.80
7666;DHT22;3875;46.562;4.898;2023-08-07T10:01:36;24.10;58.70
7666;DHT22;3875;46.562;4.898;2023-08-07T10:04:02;24.00;60.30
7666;DHT22;3875;46.562;4.898;2023-08-07T10:06:28;24.40;58.80
7666;DHT22;3875;46.562;4.898;2023-08-07T10:08:55;24.80;58.20
7666;DHT22;3875;46.562;4.898;2023-08-07T10:11:21;25.30;58.50
7666;DHT22;3875;46.562;4.898;2023-08-07T10:13:48;25.80;56.60
7666;DHT22;3875;46.562;4.898;2023-08-07T10:16:14;26.10;56.50
7666;DHT22;3875;46.562;4.898;2023-08-07T10:18:40;26.50;56.20
7666;DHT22;3875;46.562;4.898;2023-08-07T10:21:06;26.80;55.30
7666;DHT22;3875;46.562;4.898;2023-08-07T10:23:34;27.20;54.10
7666;DHT22;3875;46.562;4.898;2023-08-07T10:26:03;27.40;52.60
7666;DHT22;3875;46.562;4.898;2023-08-07T10:28:30;27.20;52.50
7666;DHT22;3875;46.562;4.898;2023-08-07T10:30:57;27.00;52.10
7666;DHT22;3875;46.562;4.898;2023-08-07T10:33:23;27.20;53.60
7666;DHT22;3875;46.562;4.898;2023-08-07T10:35:52;27.50;53.40
7666;DHT22;3875;46.562;4.898;2023-08-07T10:38:23;27.40;52.50
7666;DHT22;3875;46.562;4.898;2023-08-07T10:41:09;27.30;51.80
7666;DHT22;3875;46.562;4.898;2023-08-07T10:43:42;26.60;51.80
7666;DHT22;3875;46.562;4.898;2023-08-07T10:46:16;26.00;52.20
7666;DHT22;3875;46.562;4.898;2023-08-07T10:48:45;25.50;53.40
7666;DHT22;3875;46.562;4.898;2023-08-07T10:51:18;25.20;53.70
7666;DHT22;3875;46.562;4.898;2023-08-07T10:53:45;25.60;53.70
7666;DHT22;3875;46.562;4.898;2023-08-07T10:56:29;26.20;53.70
7666;DHT22;3875;46.562;4.898;2023-08-07T10:58:54;26.70;52.40
7666;DHT22;3875;46.562;4.898;2023-08-07T11:01:41;27.00;51.80
7666;DHT22;3875;46.562;4.898;2023-08-07T11:04:12;26.80;51.70
7666;DHT22;3875;46.562;4.898;2023-08-07T11:06:40;26.50;52.20
7666;DHT22;3875;46.562;4.898;2023-08-07T11:09:07;25.70;52.10
7666;DHT22;3875;46.562;4.898;2023-08-07T11:11:37;25.40;53.60
7666;DHT22;3875;46.562;4.898;2023-08-07T11:14:09;25.10;54.10
7666;DHT22;3875;46.562;4.898;2023-08-07T11:16:36;24.80;54.60
7666;DHT22;3875;46.562;4.898;2023-08-07T11:19:02;24.50;54.70
7666;DHT22;3875;46.562;4.898;2023-08-07T11:21:29;24.30;55.20
7666;DHT22;3875;46.562;4.898;2023-08-07T11:23:55;24.20;55.90
7666;DHT22;3875;46.562;4.898;2023-08-07T11:26:21;24.50;56.30
7666;DHT22;3875;46.562;4.898;2023-08-07T11:28:48;25.10;56.80
7666;DHT22;3875;46.562;4.898;2023-08-07T11:31:14;25.70;54.20
7666;DHT22;3875;46.562;4.898;2023-08-07T11:33:41;26.00;53.50
7666;DHT22;3875;46.562;4.898;2023-08-07T11:36:15;26.60;53.80
7666;DHT22;3875;46.562;4.898;2023-08-07T11:38:43;27.20;52.20
7666;DHT22;3875;46.562;4.898;2023-08-07T11:41:11;27.60;50.40
7666;DHT22;3875;46.562;4.898;2023-08-07T11:43:37;28.00;51.10
7666;DHT22;3875;46.562;4.898;2023-08-07T11:46:07;28.30;50.80
7666;DHT22;3875;46.562;4.898;2023-08-07T11:48:35;28.60;50.20
7666;DHT22;3875;46.562;4.898;2023-08-07T11:51:02;28.80;49.90
7666;DHT22;3875;46.562;4.898;2023-08-07T11:53:30;28.90;50.00
7666;DHT22;3875;46.562;4.898;2023-08-07T11:56:00;29.20;49.40
7666;DHT22;3875;46.562;4.898;2023-08-07T11:58:34;29.40;48.30
7666;DHT22;3875;46.562;4.898;2023-08-07T12:01:03;29.50;47.90
7666;DHT22;3875;46.562;4.898;2023-08-07T12:03:31;28.90;48.90
7666;DHT22;3875;46.562;4.898;2023-08-07T12:06:01;28.20;50.80
7666;DHT22;3875;46.562;4.898;2023-08-07T12:08:35;27.50;51.10
7666;DHT22;3875;46.562;4.898;2023-08-07T12:11:06;26.70;52.50
7666;DHT22;3875;46.562;4.898;2023-08-07T12:13:32;26.60;53.60
7666;DHT22;3875;46.562;4.898;2023-08-07T12:16:01;27.00;52.90
7666;DHT22;3875;46.562;4.898;2023-08-07T12:18:27;27.40;51.20
7666;DHT22;3875;46.562;4.898;2023-08-07T12:21:04;28.20;51.20
7666;DHT22;3875;46.562;4.898;2023-08-07T12:23:33;28.70;49.40
7666;DHT22;3875;46.562;4.898;2023-08-07T12:26:00;28.70;49.60
7666;DHT22;3875;46.562;4.898;2023-08-07T12:28:25;28.50;50.50
7666;DHT22;3875;46.562;4.898;2023-08-07T12:30:51;27.90;49.20
7666;DHT22;3875;46.562;4.898;2023-08-07T12:33:17;27.30;50.90
7666;DHT22;3875;46.562;4.898;2023-08-07T12:35:43;26.90;50.00
7666;DHT22;3875;46.562;4.898;2023-08-07T12:38:09;26.50;51.20
7666;DHT22;3875;46.562;4.898;2023-08-07T12:40:36;25.90;51.90
7666;DHT22;3875;46.562;4.898;2023-08-07T12:43:06;25.30;52.00
7666;DHT22;3875;46.562;4.898;2023-08-07T12:45:32;25.00;53.60
7666;DHT22;3875;46.562;4.898;2023-08-07T12:47:59;25.10;53.60
7666;DHT22;3875;46.562;4.898;2023-08-07T12:50:25;25.20;54.40
7666;DHT22;3875;46.562;4.898;2023-08-07T12:52:51;26.50;51.70
7666;DHT22;3875;46.562;4.898;2023-08-07T12:55:17;27.10;52.40
7666;DHT22;3875;46.562;4.898;2023-08-07T12:57:43;27.50;50.20
7666;DHT22;3875;46.562;4.898;2023-08-07T13:00:10;27.50;50.50
7666;DHT22;3875;46.562;4.898;2023-08-07T13:02:40;27.40;49.70
7666;DHT22;3875;46.562;4.898;2023-08-07T13:05:05;26.90;51.30
7666;DHT22;3875;46.562;4.898;2023-08-07T13:07:31;26.80;50.10
7666;DHT22;3875;46.562;4.898;2023-08-07T13:09:57;26.70;50.80
7666;DHT22;3875;46.562;4.898;2023-08-07T13:12:23;26.60;52.00
7666;DHT22;3875;46.562;4.898;2023-08-07T13:14:48;26.40;53.10
7666;DHT22;3875;46.562;4.898;2023-08-07T13:17:14;26.60;51.10
7666;DHT22;3875;46.562;4.898;2023-08-07T13:19:40;26.60;51.70
7666;DHT22;3875;46.562;4.898;2023-08-07T13:22:06;26.10;53.20
7666;DHT22;3875;46.562;4.898;2023-08-07T13:24:32;25.70;53.60
7666;DHT22;3875;46.562;4.898;2023-08-07T13:26:58;25.50;55.20
7666;DHT22;3875;46.562;4.898;2023-08-07T13:29:23;25.20;54.80
7666;DHT22;3875;46.562;4.898;2023-08-07T13:31:51;25.10;55.00
7666;DHT22;3875;46.562;4.898;2023-08-07T13:34:17;24.80;55.40
7666;DHT22;3875;46.562;4.898;2023-08-07T13:36:43;24.80;56.00
7666;DHT22;3875;46.562;4.898;2023-08-07T13:39:08;24.80;55.90
7666;DHT22;3875;46.562;4.898;2023-08-07T13:41:34;24.80;56.10
7666;DHT22;3875;46.562;4.898;2023-08-07T13:44:00;25.00;55.10
7666;DHT22;3875;46.562;4.898;2023-08-07T13:46:26;25.80;55.70
7666;DHT22;3875;46.562;4.898;2023-08-07T13:48:52;26.70;53.60
7666;DHT22;3875;46.562;4.898;2023-08-07T13:51:18;26.90;52.90
7666;DHT22;3875;46.562;4.898;2023-08-07T13:53:44;27.00;51.30
7666;DHT22;3875;46.562;4.898;2023-08-07T13:56:10;26.50;52.40
7666;DHT22;3875;46.562;4.898;2023-08-07T13:58:38;26.20;53.00
7666;DHT22;3875;46.562;4.898;2023-08-07T14:01:04;26.30;53.90
7666;DHT22;3875;46.562;4.898;2023-08-07T14:03:31;26.40;53.30
7666;DHT22;3875;46.562;4.898;2023-08-07T14:05:56;26.30;53.30
7666;DHT22;3875;46.562;4.898;2023-08-07T14:08:22;26.30;53.10
7666;DHT22;3875;46.562;4.898;2023-08-07T14:10:48;26.00;52.90
7666;DHT22;3875;46.562;4.898;2023-08-07T14:13:14;25.60;54.30
7666;DHT22;3875;46.562;4.898;2023-08-07T14:15:39;25.40;54.50
7666;DHT22;3875;46.562;4.898;2023-08-07T14:18:05;25.40;54.70
7666;DHT22;3875;46.562;4.898;2023-08-07T14:20:31;25.40;54.70
7666;DHT22;3875;46.562;4.898;2023-08-07T14:22:57;25.10;55.10
7666;DHT22;3875;46.562;4.898;2023-08-07T14:25:23;25.30;55.30
7666;DHT22;3875;46.562;4.898;2023-08-07T14:27:49;25.20;55.50
7666;DHT22;3875;46.562;4.898;2023-08-07T14:30:15;25.00;54.90
7666;DHT22;3875;46.562;4.898;2023-08-07T14:32:41;24.90;55.30
7666;DHT22;3875;46.562;4.898;2023-08-07T14:35:08;24.90;55.60
7666;DHT22;3875;46.562;4.898;2023-08-07T14:37:34;25.20;54.20
7666;DHT22;3875;46.562;4.898;2023-08-07T14:40:02;25.20;55.10
7666;DHT22;3875;46.562;4.898;2023-08-07T14:42:28;25.00;54.80
7666;DHT22;3875;46.562;4.898;2023-08-07T14:44:54;24.70;55.50
7666;DHT22;3875;46.562;4.898;2023-08-07T14:47:19;24.50;56.20
7666;DHT22;3875;46.562;4.898;2023-08-07T14:49:45;24.40;56.30
7666;DHT22;3875;46.562;4.898;2023-08-07T14:52:10;24.70;56.90
7666;DHT22;3875;46.562;4.898;2023-08-07T14:54:36;25.40;57.00
7666;DHT22;3875;46.562;4.898;2023-08-07T14:57:02;26.10;55.70
7666;DHT22;3875;46.562;4.898;2023-08-07T14:59:27;26.70;54.70
7666;DHT22;3875;46.562;4.898;2023-08-07T15:01:53;27.00;52.10
7666;DHT22;3875;46.562;4.898;2023-08-07T15:04:19;27.10;51.60
7666;DHT22;3875;46.562;4.898;2023-08-07T15:06:44;26.90;51.30
7666;DHT22;3875;46.562;4.898;2023-08-07T15:09:16;26.60;52.80
7666;DHT22;3875;46.562;4.898;2023-08-07T15:11:43;26.60;52.60
7666;DHT22;3875;46.562;4.898;2023-08-07T15:14:08;26.60;51.60
7666;DHT22;3875;46.562;4.898;2023-08-07T15:16:34;27.10;50.90
7666;DHT22;3875;46.562;4.898;2023-08-07T15:19:01;27.10;50.10
7666;DHT22;3875;46.562;4.898;2023-08-07T15:21:26;27.00;51.70
7666;DHT22;3875;46.562;4.898;2023-08-07T15:23:52;27.10;52.30
7666;DHT22;3875;46.562;4.898;2023-08-07T15:26:18;27.40;51.70
7666;DHT22;3875;46.562;4.898;2023-08-07T15:28:43;27.30;50.90
7666;DHT22;3875;46.562;4.898;2023-08-07T15:31:10;27.60;49.50
7666;DHT22;3875;46.562;4.898;2023-08-07T15:33:36;27.50;49.50
7666;DHT22;3875;46.562;4.898;2023-08-07T15:36:02;27.60;50.80
7666;DHT22;3875;46.562;4.898;2023-08-07T15:38:27;27.90;51.30
7666;DHT22;3875;46.562;4.898;2023-08-07T15:40:56;27.70;51.10
7666;DHT22;3875;46.562;4.898;2023-08-07T15:43:22;27.70;51.00
7666;DHT22;3875;46.562;4.898;2023-08-07T15:45:51;27.60;50.30
7666;DHT22;3875;46.562;4.898;2023-08-07T15:48:20;27.30;50.90
7666;DHT22;3875;46.562;4.898;2023-08-07T15:50:45;27.30;51.40
7666;DHT22;3875;46.562;4.898;2023-08-07T15:53:11;27.70;50.80
7666;DHT22;3875;46.562;4.898;2023-08-07T15:55:37;27.90;50.70
7666;DHT22;3875;46.562;4.898;2023-08-07T15:58:04;27.80;50.50
7666;DHT22;3875;46.562;4.898;2023-08-07T16:00:31;27.80;50.90
7666;DHT22;3875;46.562;4.898;2023-08-07T16:03:06;27.40;51.00
7666;DHT22;3875;46.562;4.898;2023-08-07T16:05:36;27.10;51.40
7666;DHT22;3875;46.562;4.898;2023-08-07T16:08:03;26.80;51.70
7666;DHT22;3875;46.562;4.898;2023-08-07T16:10:29;26.80;52.70
7666;DHT22;3875;46.562;4.898;2023-08-07T16:12:55;27.30;51.70